sensor_id;sensor_type;location;lat;lon;timestamp;temperature;humidity
22968;DHT22;11650;48.106;-1.696;2023-03-20T00:03:47;9.80;99.90
22968;DHT22;11650;48.106;-1.696;2023-03-20T00:06:24;9.80;99.90
22968;DHT22;11650;48.106;-1.696;2023-03-20T00:08:52;9.90;99.90
22968;DHT22;11650;48.106;-1.696;2023-03-20T00:11:32;9.80;99.90
22968;DHT22;11650;48.106;-1.696;2023-03-20T00:14:06;9.90;99.90
22968;DHT22;11650;48.106;-1.696;2023-03-20T00:16:41;9.90;99.90
22968;DHT22;11650;48.106;-1.696;2023-03-20T00:19:17;9.90;99.90
22968;DHT22;11650;48.106;-1.696;2023-03-20T00:21:44;9.80;99.90
22968;DHT22;11650;48.106;-1.696;2023-03-20T00:24:11;9.80;99.90
22968;DHT22;11650;48.106;-1.696;2023-03-20T00:26:37;9.90;99.90
22968;DHT22;11650;48.106;-1.696;2023-03-20T00:29:04;9.90;99.90
22968;DHT22;11650;48.106;-1.696;2023-03-20T00:31:36;9.80;99.90
22968;DHT22;11650;48.106;-1.696;2023-03-20T00:34:10;9.70;99.90
22968;DHT22;11650;48.106;-1.696;2023-03-20T00:36:36;9.70;99.90
22968;DHT22;11650;48.106;-1.696;2023-03-20T00:39:02;9.70;99.90
22968;DHT22;11650;48.106;-1.696;2023-03-20T00:41:32;9.70;99.90
22968;DHT22;11650;48.106;-1.696;2023-03-20T00:46:31;9.70;99.90
22968;DHT22;11650;48.106;-1.696;2023-03-20T00:48:59;9.80;99.90
22968;DHT22;11650;48.106;-1.696;2023-03-20T00:51:26;9.70;99.90
22968;DHT22;11650;48.106;-1.696;2023-03-20T00:53:51;9.80;99.90
22968;DHT22;11650;48.106;-1.696;2023-03-20T00:56:31;9.80;99.90
22968;DHT22;11650;48.106;-1.696;2023-03-20T00:58:59;9.80;99.90
22968;DHT22;11650;48.106;-1.696;2023-03-20T01:01:26;9.70;99.90
22968;DHT22;11650;48.106;-1.696;2023-03-20T01:03:52;9.70;99.90
22968;DHT22;11650;48.106;-1.696;2023-03-20T01:06:18;9.70;99.90
22968;DHT22;11650;48.106;-1.696;2023-03-20T01:08:43;9.70;99.90
22968;DHT22;11650;48.106;-1.696;2023-03-20T01:11:11;9.70;99.90
22968;DHT22;11650;48.106;-1.696;2023-03-20T01:13:37;9.70;99.90
22968;DHT22;11650;48.106;-1.696;2023-03-20T01:16:05;9.60;99.90
22968;DHT22;11650;48.106;-1.696;2023-03-20T01:18:30;9.70;99.90
22968;DHT22;11650;48.106;-1.696;2023-03-20T01:20:56;9.70;99.90
22968;DHT22;11650;48.106;-1.696;2023-03-20T01:23:22;9.70;99.90
22968;DHT22;11650;48.106;-1.696;2023-03-20T01:25:48;9.70;99.90
22968;DHT22;11650;48.106;-1.696;2023-03-20T01:28:18;9.60;99.90
22968;DHT22;11650;48.106;-1.696;2023-03-20T01:30:46;9.60;99.90
22968;DHT22;11650;48.106;-1.696;2023-03-20T01:33:17;9.60;99.90
22968;DHT22;11650;48.106;-1.696;2023-03-20T01:35:44;9.50;99.90
22968;DHT22;11650;48.106;-1.696;2023-03-20T01:38:19;9.50;99.90
22968;DHT22;11650;48.106;-1.696;2023-03-20T01:43:19;9.50;99.90
22968;DHT22;11650;48.106;-1.696;2023-03-20T01:56:22;9.50;99.90
22968;DHT22;11650;48.106;-1.696;2023-03-20T01:58:59;9.50;99.90
22968;DHT22;11650;48.106;-1.696;2023-03-20T02:01:27;9.50;99.90
22968;DHT22;11650;48.106;-1.696;2023-03-20T02:03:54;9.50;99.90
22968;DHT22;11650;48.106;-1.696;2023-03-20T02:06:23;9.50;99.90
22968;DHT22;11650;48.106;-1.696;2023-03-20T02:08:51;9.40;99.90
22968;DHT22;11650;48.106;-1.696;2023-03-20T02:11:19;9.50;99.90
22968;DHT22;11650;48.106;-1.696;2023-03-20T02:13:47;9.40;99.90
22968;DHT22;11650;48.106;-1.696;2023-03-20T02:16:15;9.40;99.90
22968;DHT22;11650;48.106;-1.696;2023-03-20T02:18:48;9.50;99.90
22968;DHT22;11650;48.106;-1.696;2023-03-20T02:43:05;9.40;99.90
22968;DHT22;11650;48.106;-1.696;2023-03-20T02:45:43;9.40;99.90
22968;DHT22;11650;48.106;-1.696;2023-03-20T02:48:56;9.40;99.90
22968;DHT22;11650;48.106;-1.696;2023-03-20T02:51:43;9.40;99.90
22968;DHT22;11650;48.106;-1.696;2023-03-20T02:54:22;9.40;99.90
22968;DHT22;11650;48.106;-1.696;2023-03-20T02:57:03;9.40;99.90
22968;DHT22;11650;48.106;-1.696;2023-03-20T02:59:47;9.30;99.90
22968;DHT22;11650;48.106;-1.696;2023-03-20T03:02:35;9.30;99.90
22968;DHT22;11650;48.106;-1.696;2023-03-20T03:05:06;9.30;99.90
22968;DHT22;11650;48.106;-1.696;2023-03-20T03:07:34;9.20;99.90
22968;DHT22;11650;48.106;-1.696;2023-03-20T03:10:06;9.20;99.90
22968;DHT22;11650;48.106;-1.696;2023-03-20T03:12:37;9.10;99.90
22968;DHT22;11650;48.106;-1.696;2023-03-20T03:15:13;9.00;99.90
22968;DHT22;11650;48.106;-1.696;2023-03-20T03:17:41;9.00;99.90
22968;DHT22;11650;48.106;-1.696;2023-03-20T03:20:19;8.90;99.90
22968;DHT22;11650;48.106;-1.696;2023-03-20T03:22:46;8.90;99.90
22968;DHT22;11650;48.106;-1.696;2023-03-20T03:25:11;8.80;99.90
22968;DHT22;11650;48.106;-1.696;2023-03-20T03:27:41;8.80;99.90
22968;DHT22;11650;48.106;-1.696;2023-03-20T03:30:15;8.80;99.90
22968;DHT22;11650;48.106;-1.696;2023-03-20T03:35:26;8.70;99.90
22968;DHT22;11650;48.106;-1.696;2023-03-20T03:40:52;8.80;99.90
22968;DHT22;11650;48.106;-1.696;2023-03-20T03:43:35;8.80;99.90
22968;DHT22;11650;48.106;-1.696;2023-03-20T03:46:26;8.80;99.90
22968;DHT22;11650;48.106;-1.696;2023-03-20T03:48:56;8.80;99.90
22968;DHT22;11650;48.106;-1.696;2023-03-20T03:51:26;8.80;99.90
22968;DHT22;11650;48.106;-1.696;2023-03-20T03:54:21;8.80;99.90
22968;DHT22;11650;48.106;-1.696;2023-03-20T03:56:46;8.80;99.90
22968;DHT22;11650;48.106;-1.696;2023-03-20T03:59:27;8.80;99.90
22968;DHT22;11650;48.106;-1.696;2023-03-20T04:01:55;8.90;99.90
22968;DHT22;11650;48.106;-1.696;2023-03-20T04:04:23;8.90;99.90
22968;DHT22;11650;48.106;-1.696;2023-03-20T04:06:50;8.90;99.90
22968;DHT22;11650;48.106;-1.696;2023-03-20T04:09:16;8.90;99.90
22968;DHT22;11650;48.106;-1.696;2023-03-20T04:11:42;8.90;99.90
22968;DHT22;11650;48.106;-1.696;2023-03-20T04:14:09;8.90;99.90
22968;DHT22;11650;48.106;-1.696;2023-03-20T04:16:36;8.80;99.90
22968;DHT22;11650;48.106;-1.696;2023-03-20T04:19:01;8.80;99.90
22968;DHT22;11650;48.106;-1.696;2023-03-20T04:21:27;8.80;99.90
22968;DHT22;11650;48.106;-1.696;2023-03-20T04:23:53;8.80;99.90
22968;DHT22;11650;48.106;-1.696;2023-03-20T04:26:18;8.70;99.90
22968;DHT22;11650;48.106;-1.696;2023-03-20T04:28:45;8.70;99.90
22968;DHT22;11650;48.106;-1.696;2023-03-20T04:31:11;8.60;99.90
22968;DHT22;11650;48.106;-1.696;2023-03-20T04:33:37;8.60;99.90
22968;DHT22;11650;48.106;-1.696;2023-03-20T04:36:03;8.60;99.90
22968;DHT22;11650;48.106;-1.696;2023-03-20T04:38:28;8.60;99.90
22968;DHT22;11650;48.106;-1.696;2023-03-20T04:40:54;8.50;99.90
22968;DHT22;11650;48.106;-1.696;2023-03-20T04:43:20;8.50;99.90
22968;DHT22;11650;48.106;-1.696;2023-03-20T04:45:45;8.40;99.90
22968;DHT22;11650;48.106;-1.696;2023-03-20T04:48:11;8.30;99.90
22968;DHT22;11650;48.106;-1.696;2023-03-20T04:50:37;8.30;99.90
22968;DHT22;11650;48.106;-1.696;2023-03-20T04:53:03;8.20;99.90
22968;DHT22;11650;48.106;-1.696;2023-03-20T04:55:29;8.20;99.90
22968;DHT22;11650;48.106;-1.696;2023-03-20T04:57:54;8.20;99.90
22968;DHT22;11650;48.106;-1.696;2023-03-20T05:00:21;8.10;99.90
22968;DHT22;11650;48.106;-1.696;2023-03-20T05:02:47;8.10;99.90
22968;DHT22;11650;48.106;-1.696;2023-03-20T05:05:13;8.10;99.90
22968;DHT22;11650;48.106;-1.696;2023-03-20T05:07:38;8.10;99.90
22968;DHT22;11650;48.106;-1.696;2023-03-20T05:10:04;8.00;99.90
22968;DHT22;11650;48.106;-1.696;2023-03-20T05:12:30;8.10;99.90
22968;DHT22;11650;48.106;-1.696;2023-03-20T05:14:56;8.00;99.90
22968;DHT22;11650;48.106;-1.696;2023-03-20T05:17:22;8.00;99.90
22968;DHT22;11650;48.106;-1.696;2023-03-20T05:19:49;8.00;99.90
22968;DHT22;11650;48.106;-1.696;2023-03-20T05:22:16;8.00;99.90
22968;DHT22;11650;48.106;-1.696;2023-03-20T05:24:42;7.90;99.90
22968;DHT22;11650;48.106;-1.696;2023-03-20T05:27:08;7.90;99.90
22968;DHT22;11650;48.106;-1.696;2023-03-20T05:29:33;8.00;99.90
22968;DHT22;11650;48.106;-1.696;2023-03-20T05:31:59;8.00;99.90
22968;DHT22;11650;48.106;-1.696;2023-03-20T05:34:25;7.90;99.90
22968;DHT22;11650;48.106;-1.696;2023-03-20T05:36:52;7.90;99.90
22968;DHT22;11650;48.106;-1.696;2023-03-20T05:39:18;8.00;99.90
22968;DHT22;11650;48.106;-1.696;2023-03-20T05:41:43;7.90;99.90
22968;DHT22;11650;48.106;-1.696;2023-03-20T05:44:09;7.90;99.90
22968;DHT22;11650;48.106;-1.696;2023-03-20T05:46:35;7.80;99.90
22968;DHT22;11650;48.106;-1.696;2023-03-20T05:49:01;7.90;99.90
22968;DHT22;11650;48.106;-1.696;2023-03-20T05:51:26;7.90;99.90
22968;DHT22;11650;48.106;-1.696;2023-03-20T05:53:52;8.00;99.90
22968;DHT22;11650;48.106;-1.696;2023-03-20T05:56:17;7.90;99.90
22968;DHT22;11650;48.106;-1.696;2023-03-20T05:58:43;7.90;99.90
22968;DHT22;11650;48.106;-1.696;2023-03-20T06:01:09;7.90;99.90
22968;DHT22;11650;48.106;-1.696;2023-03-20T06:03:34;7.90;99.90
22968;DHT22;11650;48.106;-1.696;2023-03-20T06:06:01;8.00;99.90
22968;DHT22;11650;48.106;-1.696;2023-03-20T06:08:27;8.00;99.90
22968;DHT22;11650;48.106;-1.696;2023-03-20T06:10:54;7.90;99.90
22968;DHT22;11650;48.106;-1.696;2023-03-20T06:13:20;8.00;99.90
22968;DHT22;11650;48.106;-1.696;2023-03-20T06:15:46;7.90;99.90
22968;DHT22;11650;48.106;-1.696;2023-03-20T06:18:11;8.00;99.90
22968;DHT22;11650;48.106;-1.696;2023-03-20T06:20:37;7.90;99.90
22968;DHT22;11650;48.106;-1.696;2023-03-20T06:23:02;7.90;99.90
22968;DHT22;11650;48.106;-1.696;2023-03-20T06:25:28;7.90;99.90
22968;DHT22;11650;48.106;-1.696;2023-03-20T06:27:54;7.90;99.90
22968;DHT22;11650;48.106;-1.696;2023-03-20T06:30:20;7.90;99.90
22968;DHT22;11650;48.106;-1.696;2023-03-20T06:32:45;8.00;99.90
22968;DHT22;11650;48.106;-1.696;2023-03-20T06:35:12;8.00;99.90
22968;DHT22;11650;48.106;-1.696;2023-03-20T06:37:38;8.00;99.90
22968;DHT22;11650;48.106;-1.696;2023-03-20T06:40:04;8.10;99.90
22968;DHT22;11650;48.106;-1.696;2023-03-20T06:42:30;8.10;99.90
22968;DHT22;11650;48.106;-1.696;2023-03-20T06:44:56;8.10;99.90
22968;DHT22;11650;48.106;-1.696;2023-03-20T06:47:22;8.20;99.90
22968;DHT22;11650;48.106;-1.696;2023-03-20T06:49:47;8.20;99.90
22968;DHT22;11650;48.106;-1.696;2023-03-20T06:52:18;8.30;99.90
22968;DHT22;11650;48.106;-1.696;2023-03-20T06:54:44;8.30;99.90
22968;DHT22;11650;48.106;-1.696;2023-03-20T06:57:10;8.40;99.90
22968;DHT22;11650;48.106;-1.696;2023-03-20T06:59:36;8.40;99.90
22968;DHT22;11650;48.106;-1.696;2023-03-20T07:02:02;8.50;99.90
22968;DHT22;11650;48.106;-1.696;2023-03-20T07:04:28;8.60;99.90
22968;DHT22;11650;48.106;-1.696;2023-03-20T07:06:54;8.70;99.90
22968;DHT22;11650;48.106;-1.696;2023-03-20T07:09:19;8.70;99.90
22968;DHT22;11650;48.106;-1.696;2023-03-20T07:11:46;8.80;99.90
22968;DHT22;11650;48.106;-1.696;2023-03-20T07:14:12;9.00;99.90
22968;DHT22;11650;48.106;-1.696;2023-03-20T07:16:39;9.00;99.90
22968;DHT22;11650;48.106;-1.696;2023-03-20T07:19:05;9.00;99.90
22968;DHT22;11650;48.106;-1.696;2023-03-20T07:21:30;9.10;99.90
22968;DHT22;11650;48.106;-1.696;2023-03-20T07:23:56;9.10;99.90
22968;DHT22;11650;48.106;-1.696;2023-03-20T07:26:22;9.20;99.90
22968;DHT22;11650;48.106;-1.696;2023-03-20T07:28:48;9.20;99.90
22968;DHT22;11650;48.106;-1.696;2023-03-20T07:31:21;9.20;99.90
22968;DHT22;11650;48.106;-1.696;2023-03-20T07:33:47;9.30;99.90
22968;DHT22;11650;48.106;-1.696;2023-03-20T07:36:13;9.30;99.90
22968;DHT22;11650;48.106;-1.696;2023-03-20T07:38:39;9.40;99.90
22968;DHT22;11650;48.106;-1.696;2023-03-20T07:41:05;9.40;99.90
22968;DHT22;11650;48.106;-1.696;2023-03-20T07:43:31;9.50;99.90
22968;DHT22;11650;48.106;-1.696;2023-03-20T07:45:57;9.50;99.90
22968;DHT22;11650;48.106;-1.696;2023-03-20T07:48:22;9.50;99.90
22968;DHT22;11650;48.106;-1.696;2023-03-20T07:50:48;9.70;99.90
22968;DHT22;11650;48.106;-1.696;2023-03-20T07:53:14;9.80;99.90
22968;DHT22;11650;48.106;-1.696;2023-03-20T07:55:39;9.90;99.90
22968;DHT22;11650;48.106;-1.696;2023-03-20T07:58:05;9.90;99.90
22968;DHT22;11650;48.106;-1.696;2023-03-20T08:00:33;10.00;99.90
22968;DHT22;11650;48.106;-1.696;2023-03-20T08:02:58;10.20;99.90
22968;DHT22;11650;48.106;-1.696;2023-03-20T08:05:24;10.30;99.90
22968;DHT22;11650;48.106;-1.696;2023-03-20T08:07:50;10.40;99.90
22968;DHT22;11650;48.106;-1.696;2023-03-20T08:10:16;10.20;99.90
22968;DHT22;11650;48.106;-1.696;2023-03-20T08:12:42;10.40;99.90
22968;DHT22;11650;48.106;-1.696;2023-03-20T08:15:08;10.60;99.90
22968;DHT22;11650;48.106;-1.696;2023-03-20T08:17:33;10.70;99.90
22968;DHT22;11650;48.106;-1.696;2023-03-20T08:19:59;10.70;99.90
22968;DHT22;11650;48.106;-1.696;2023-03-20T08:22:25;10.80;99.90
22968;DHT22;11650;48.106;-1.696;2023-03-20T08:24:50;10.80;99.90
22968;DHT22;11650;48.106;-1.696;2023-03-20T08:27:16;10.80;99.90
22968;DHT22;11650;48.106;-1.696;2023-03-20T08:29:42;10.90;99.90
22968;DHT22;11650;48.106;-1.696;2023-03-20T08:32:07;11.00;99.90
22968;DHT22;11650;48.106;-1.696;2023-03-20T08:34:33;11.00;99.90
22968;DHT22;11650;48.106;-1.696;2023-03-20T08:36:59;11.00;99.90
22968;DHT22;11650;48.106;-1.696;2023-03-20T08:39:26;11.10;99.90
22968;DHT22;11650;48.106;-1.696;2023-03-20T08:41:52;11.10;99.90
22968;DHT22;11650;48.106;-1.696;2023-03-20T08:44:18;11.20;99.90
22968;DHT22;11650;48.106;-1.696;2023-03-20T08:46:43;11.20;99.90
22968;DHT22;11650;48.106;-1.696;2023-03-20T08:49:10;11.30;99.90
22968;DHT22;11650;48.106;-1.696;2023-03-20T08:51:36;11.40;99.90
22968;DHT22;11650;48.106;-1.696;2023-03-20T08:54:01;11.60;99.90
22968;DHT22;11650;48.106;-1.696;2023-03-20T08:56:27;11.70;99.90
22968;DHT22;11650;48.106;-1.696;2023-03-20T08:58:53;11.70;99.90
22968;DHT22;11650;48.106;-1.696;2023-03-20T09:01:20;11.80;99.90
22968;DHT22;11650;48.106;-1.696;2023-03-20T09:03:46;11.90;99.90
22968;DHT22;11650;48.106;-1.696;2023-03-20T09:06:12;12.10;99.90
22968;DHT22;11650;48.106;-1.696;2023-03-20T09:08:37;12.00;99.90
22968;DHT22;11650;48.106;-1.696;2023-03-20T09:11:04;12.10;99.90
22968;DHT22;11650;48.106;-1.696;2023-03-20T09:13:30;12.20;99.90
22968;DHT22;11650;48.106;-1.696;2023-03-20T09:15:56;12.20;99.90
22968;DHT22;11650;48.106;-1.696;2023-03-20T09:18:23;12.30;99.90
22968;DHT22;11650;48.106;-1.696;2023-03-20T09:20:49;12.60;99.90
22968;DHT22;11650;48.106;-1.696;2023-03-20T09:23:15;12.90;99.90
22968;DHT22;11650;48.106;-1.696;2023-03-20T09:25:41;13.20;99.90
22968;DHT22;11650;48.106;-1.696;2023-03-20T09:28:07;13.00;99.90
22968;DHT22;11650;48.106;-1.696;2023-03-20T09:30:33;12.90;99.90
22968;DHT22;11650;48.106;-1.696;2023-03-20T09:32:58;12.80;99.90
22968;DHT22;11650;48.106;-1.696;2023-03-20T09:35:24;12.80;99.90
22968;DHT22;11650;48.106;-1.696;2023-03-20T09:37:50;12.60;99.90
22968;DHT22;11650;48.106;-1.696;2023-03-20T09:40:44;12.50;99.90
22968;DHT22;11650;48.106;-1.696;2023-03-20T09:43:41;12.40;99.90
22968;DHT22;11650;48.106;-1.696;2023-03-20T09:49:20;12.30;99.90
22968;DHT22;11650;48.106;-1.696;2023-03-20T09:51:58;12.30;99.90
22968;DHT22;11650;48.106;-1.696;2023-03-20T09:54:36;12.40;99.90
22968;DHT22;11650;48.106;-1.696;2023-03-20T09:57:04;12.40;99.90
22968;DHT22;11650;48.106;-1.696;2023-03-20T09:59:33;12.60;99.90
22968;DHT22;11650;48.106;-1.696;2023-03-20T10:02:05;13.20;99.90
22968;DHT22;11650;48.106;-1.696;2023-03-20T10:04:36;13.30;99.90
22968;DHT22;11650;48.106;-1.696;2023-03-20T10:07:04;13.20;99.90
22968;DHT22;11650;48.106;-1.696;2023-03-20T10:09:30;13.20;99.90
22968;DHT22;11650;48.106;-1.696;2023-03-20T10:22:48;13.90;99.90
22968;DHT22;11650;48.106;-1.696;2023-03-20T10:25:39;14.10;99.90
22968;DHT22;11650;48.106;-1.696;2023-03-20T10:28:29;14.20;99.90
22968;DHT22;11650;48.106;-1.696;2023-03-20T10:33:56;14.40;99.90
22968;DHT22;11650;48.106;-1.696;2023-03-20T10:41:55;14.30;99.90
22968;DHT22;11650;48.106;-1.696;2023-03-20T10:44:31;14.20;99.90
22968;DHT22;11650;48.106;-1.696;2023-03-20T10:47:01;14.40;99.90
22968;DHT22;11650;48.106;-1.696;2023-03-20T10:49:41;14.40;99.90
22968;DHT22;11650;48.106;-1.696;2023-03-20T10:52:16;14.50;99.90
22968;DHT22;11650;48.106;-1.696;2023-03-20T10:54:47;14.40;99.90
22968;DHT22;11650;48.106;-1.696;2023-03-20T10:57:19;14.30;99.90
22968;DHT22;11650;48.106;-1.696;2023-03-20T10:59:48;14.30;99.90
22968;DHT22;11650;48.106;-1.696;2023-03-20T11:02:16;14.20;99.90
22968;DHT22;11650;48.106;-1.696;2023-03-20T11:04:42;14.30;99.90
22968;DHT22;11650;48.106;-1.696;2023-03-20T11:07:24;14.40;99.90
22968;DHT22;11650;48.106;-1.696;2023-03-20T11:10:06;14.90;99.90
22968;DHT22;11650;48.106;-1.696;2023-03-20T11:12:35;14.90;99.90
22968;DHT22;11650;48.106;-1.696;2023-03-20T11:15:27;15.10;99.90
22968;DHT22;11650;48.106;-1.696;2023-03-20T11:18:00;15.20;99.90
22968;DHT22;11650;48.106;-1.696;2023-03-20T11:20:32;15.10;99.90
22968;DHT22;11650;48.106;-1.696;2023-03-20T11:23:02;15.00;99.90
22968;DHT22;11650;48.106;-1.696;2023-03-20T11:25:31;15.30;99.90
22968;DHT22;11650;48.106;-1.696;2023-03-20T11:31:00;15.20;99.90
22968;DHT22;11650;48.106;-1.696;2023-03-20T11:33:28;15.40;99.90
22968;DHT22;11650;48.106;-1.696;2023-03-20T11:35:56;15.50;99.90
22968;DHT22;11650;48.106;-1.696;2023-03-20T11:38:23;15.50;99.90
22968;DHT22;11650;48.106;-1.696;2023-03-20T11:40:50;15.50;99.90
22968;DHT22;11650;48.106;-1.696;2023-03-20T11:43:24;15.60;99.90
22968;DHT22;11650;48.106;-1.696;2023-03-20T11:45:56;15.60;99.90
22968;DHT22;11650;48.106;-1.696;2023-03-20T11:48:40;15.40;99.90
22968;DHT22;11650;48.106;-1.696;2023-03-20T12:01:20;16.00;99.90
22968;DHT22;11650;48.106;-1.696;2023-03-20T12:04:00;16.10;99.90
22968;DHT22;11650;48.106;-1.696;2023-03-20T12:09:10;16.10;99.90
22968;DHT22;11650;48.106;-1.696;2023-03-20T12:11:47;16.10;99.90
22968;DHT22;11650;48.106;-1.696;2023-03-20T12:14:26;16.70;99.90
22968;DHT22;11650;48.106;-1.696;2023-03-20T12:17:25;16.90;99.90
22968;DHT22;11650;48.106;-1.696;2023-03-20T12:19:55;16.60;99.90
22968;DHT22;11650;48.106;-1.696;2023-03-20T12:22:27;16.50;99.90
22968;DHT22;11650;48.106;-1.696;2023-03-20T12:25:10;16.60;99.90
22968;DHT22;11650;48.106;-1.696;2023-03-20T12:27:48;16.30;99.90
22968;DHT22;11650;48.106;-1.696;2023-03-20T12:33:05;16.60;99.90
22968;DHT22;11650;48.106;-1.696;2023-03-20T12:35:37;16.40;99.90
22968;DHT22;11650;48.106;-1.696;2023-03-20T12:38:30;16.60;99.90
22968;DHT22;11650;48.106;-1.696;2023-03-20T12:47:03;16.90;99.90
22968;DHT22;11650;48.106;-1.696;2023-03-20T13:05:44;17.20;99.90
22968;DHT22;11650;48.106;-1.696;2023-03-20T13:08:42;17.30;99.90
22968;DHT22;11650;48.106;-1.696;2023-03-20T13:11:32;17.40;99.90
22968;DHT22;11650;48.106;-1.696;2023-03-20T13:14:11;16.60;99.90
22968;DHT22;11650;48.106;-1.696;2023-03-20T13:16:51;16.30;99.90
22968;DHT22;11650;48.106;-1.696;2023-03-20T13:22:11;16.30;99.90
22968;DHT22;11650;48.106;-1.696;2023-03-20T13:24:54;16.00;99.90
22968;DHT22;11650;48.106;-1.696;2023-03-20T13:27:49;15.80;99.90
22968;DHT22;11650;48.106;-1.696;2023-03-20T13:41:47;15.90;99.90
22968;DHT22;11650;48.106;-1.696;2023-03-20T13:44:15;16.20;99.90
22968;DHT22;11650;48.106;-1.696;2023-03-20T13:46:50;16.30;99.90
22968;DHT22;11650;48.106;-1.696;2023-03-20T13:49:32;16.20;99.90
22968;DHT22;11650;48.106;-1.696;2023-03-20T14:05:08;16.60;99.90
22968;DHT22;11650;48.106;-1.696;2023-03-20T14:07:38;16.60;99.90
22968;DHT22;11650;48.106;-1.696;2023-03-20T14:13:12;17.50;99.90
22968;DHT22;11650;48.106;-1.696;2023-03-20T14:15:53;17.00;99.90
22968;DHT22;11650;48.106;-1.696;2023-03-20T14:18:22;16.40;99.90
22968;DHT22;11650;48.106;-1.696;2023-03-20T14:21:02;16.20;99.90
22968;DHT22;11650;48.106;-1.696;2023-03-20T14:23:31;16.10;99.90
22968;DHT22;11650;48.106;-1.696;2023-03-20T14:25:58;16.10;99.90
22968;DHT22;11650;48.106;-1.696;2023-03-20T14:28:25;16.00;99.90
22968;DHT22;11650;48.106;-1.696;2023-03-20T14:31:12;15.90;99.90
22968;DHT22;11650;48.106;-1.696;2023-03-20T14:33:45;16.00;99.90
22968;DHT22;11650;48.106;-1.696;2023-03-20T14:36:29;15.90;99.90
22968;DHT22;11650;48.106;-1.696;2023-03-20T14:39:08;15.60;99.90
22968;DHT22;11650;48.106;-1.696;2023-03-20T14:47:35;15.60;99.90
22968;DHT22;11650;48.106;-1.696;2023-03-20T14:57:45;15.40;99.90
22968;DHT22;11650;48.106;-1.696;2023-03-20T15:00:21;15.50;99.90
22968;DHT22;11650;48.106;-1.696;2023-03-20T15:03:12;15.60;99.90
22968;DHT22;11650;48.106;-1.696;2023-03-20T15:05:39;15.60;99.90
22968;DHT22;11650;48.106;-1.696;2023-03-20T15:08:21;15.70;99.90
22968;DHT22;11650;48.106;-1.696;2023-03-20T15:10:54;15.80;99.90
22968;DHT22;11650;48.106;-1.696;2023-03-20T15:13:21;15.70;99.90
22968;DHT22;11650;48.106;-1.696;2023-03-20T15:15:56;15.80;99.90
22968;DHT22;11650;48.106;-1.696;2023-03-20T15:18:24;15.60;99.90
22968;DHT22;11650;48.106;-1.696;2023-03-20T15:20:50;15.60;99.90
22968;DHT22;11650;48.106;-1.696;2023-03-20T15:23:16;16.00;99.90
22968;DHT22;11650;48.106;-1.696;2023-03-20T15:25:44;16.20;99.90
22968;DHT22;11650;48.106;-1.696;2023-03-20T15:28:23;16.30;99.90
22968;DHT22;11650;48.106;-1.696;2023-03-20T15:30:51;17.10;99.90
22968;DHT22;11650;48.106;-1.696;2023-03-20T15:33:31;17.80;99.90
22968;DHT22;11650;48.106;-1.696;2023-03-20T15:35:58;18.30;99.90
22968;DHT22;11650;48.106;-1.696;2023-03-20T15:38:32;18.20;99.90
22968;DHT22;11650;48.106;-1.696;2023-03-20T15:40:58;19.40;99.90
22968;DHT22;11650;48.106;-1.696;2023-03-20T15:43:25;19.30;99.90
22968;DHT22;11650;48.106;-1.696;2023-03-20T15:45:53;18.40;99.90
22968;DHT22;11650;48.106;-1.696;2023-03-20T15:48:22;18.00;99.90
22968;DHT22;11650;48.106;-1.696;2023-03-20T15:50:59;17.90;99.90
22968;DHT22;11650;48.106;-1.696;2023-03-20T15:53:34;17.70;99.90
22968;DHT22;11650;48.106;-1.696;2023-03-20T15:56:10;17.60;99.90
22968;DHT22;11650;48.106;-1.696;2023-03-20T15:58:37;17.30;99.90
22968;DHT22;11650;48.106;-1.696;2023-03-20T16:01:04;17.10;99.90
22968;DHT22;11650;48.106;-1.696;2023-03-20T16:03:30;16.90;99.90
22968;DHT22;11650;48.106;-1.696;2023-03-20T16:05:58;17.00;99.90
22968;DHT22;11650;48.106;-1.696;2023-03-20T16:08:29;17.10;99.90
22968;DHT22;11650;48.106;-1.696;2023-03-20T16:11:09;17.40;99.90
22968;DHT22;11650;48.106;-1.696;2023-03-20T16:13:40;17.80;99.90
22968;DHT22;11650;48.106;-1.696;2023-03-20T16:16:10;17.70;99.90
22968;DHT22;11650;48.106;-1.696;2023-03-20T16:18:39;18.50;99.90
22968;DHT22;11650;48.106;-1.696;2023-03-20T16:21:11;18.80;99.90
22968;DHT22;11650;48.106;-1.696;2023-03-20T16:23:52;18.10;99.90
22968;DHT22;11650;48.106;-1.696;2023-03-20T16:26:20;17.90;99.90
22968;DHT22;11650;48.106;-1.696;2023-03-20T16:28:48;18.10;99.90
22968;DHT22;11650;48.106;-1.696;2023-03-20T16:31:34;18.60;99.90
22968;DHT22;11650;48.106;-1.696;2023-03-20T16:34:11;18.80;99.90
22968;DHT22;11650;48.106;-1.696;2023-03-20T16:36:38;18.20;99.90
22968;DHT22;11650;48.106;-1.696;2023-03-20T16:39:08;17.60;99.90
22968;DHT22;11650;48.106;-1.696;2023-03-20T16:41:36;17.60;99.90
22968;DHT22;11650;48.106;-1.696;2023-03-20T16:44:20;17.50;99.90
22968;DHT22;11650;48.106;-1.696;2023-03-20T16:52:25;16.70;99.90
22968;DHT22;11650;48.106;-1.696;2023-03-20T16:54:51;16.80;99.90
22968;DHT22;11650;48.106;-1.696;2023-03-20T16:57:18;16.60;99.90
22968;DHT22;11650;48.106;-1.696;2023-03-20T16:59:45;16.20;99.90
22968;DHT22;11650;48.106;-1.696;2023-03-20T17:04:46;16.40;99.90
22968;DHT22;11650;48.106;-1.696;2023-03-20T17:07:17;16.40;99.90
22968;DHT22;11650;48.106;-1.696;2023-03-20T17:12:42;15.70;99.90
22968;DHT22;11650;48.106;-1.696;2023-03-20T17:15:30;15.20;99.90
22968;DHT22;11650;48.106;-1.696;2023-03-20T17:17:55;15.10;99.90
22968;DHT22;11650;48.106;-1.696;2023-03-20T17:20:22;15.00;99.90
22968;DHT22;11650;48.106;-1.696;2023-03-20T17:22:48;14.70;99.90
22968;DHT22;11650;48.106;-1.696;2023-03-20T17:25:14;14.80;99.90
22968;DHT22;11650;48.106;-1.696;2023-03-20T17:27:40;14.80;99.90
22968;DHT22;11650;48.106;-1.696;2023-03-20T17:32:38;14.50;99.90
22968;DHT22;11650;48.106;-1.696;2023-03-20T17:35:04;14.40;99.90
22968;DHT22;11650;48.106;-1.696;2023-03-20T17:37:30;14.30;99.90
22968;DHT22;11650;48.106;-1.696;2023-03-20T17:39:56;14.30;99.90
22968;DHT22;11650;48.106;-1.696;2023-03-20T17:42:25;14.20;99.90
22968;DHT22;11650;48.106;-1.696;2023-03-20T17:44:56;14.00;99.90
22968;DHT22;11650;48.106;-1.696;2023-03-20T17:47:24;13.90;99.90
22968;DHT22;11650;48.106;-1.696;2023-03-20T17:49:50;13.70;99.90
22968;DHT22;11650;48.106;-1.696;2023-03-20T17:52:21;13.60;99.90
22968;DHT22;11650;48.106;-1.696;2023-03-20T17:54:47;13.50;99.90
22968;DHT22;11650;48.106;-1.696;2023-03-20T17:59:47;13.30;99.90
22968;DHT22;11650;48.106;-1.696;2023-03-20T18:02:15;13.30;99.90
22968;DHT22;11650;48.106;-1.696;2023-03-20T18:04:41;13.10;99.90
22968;DHT22;11650;48.106;-1.696;2023-03-20T18:07:08;13.00;99.90
22968;DHT22;11650;48.106;-1.696;2023-03-20T18:09:34;12.90;99.90
22968;DHT22;11650;48.106;-1.696;2023-03-20T18:12:00;12.90;99.90
22968;DHT22;11650;48.106;-1.696;2023-03-20T18:14:25;12.80;99.90
22968;DHT22;11650;48.106;-1.696;2023-03-20T18:16:51;12.70;99.90
22968;DHT22;11650;48.106;-1.696;2023-03-20T18:19:25;12.60;99.90
22968;DHT22;11650;48.106;-1.696;2023-03-20T18:21:53;12.50;99.90
22968;DHT22;11650;48.106;-1.696;2023-03-20T18:24:18;12.40;99.90
22968;DHT22;11650;48.106;-1.696;2023-03-20T18:26:44;12.30;99.90
22968;DHT22;11650;48.106;-1.696;2023-03-20T18:29:11;12.30;99.90